Overview Statistics Trail Chart Weather Telemetry Raw packets
 

This is the latest recevied weather packets stored in our database for station/object KO6HRZ. If no packets are shown the sender has not sent any weather packets the latest 10 day(s).

<< 20 21 22 23 24 25 26 >>
Time Temp. Humidity Pressure Rain* Wind** Luminosity Snow
1788364962 18.89° C 74% 1016 hPa 0 mm - 168 W/m² -
1788364359 18.33° C 76% 1016.1 hPa 0 mm - 158 W/m² -
1788363756 17.22° C 78% 1016.1 hPa 0 mm - 140 W/m² -
1788363155 17.22° C 80% 1016 hPa 0 mm - 130 W/m² -
1788362552 16.67° C 81% 1015.8 hPa 0 mm - 120 W/m² -
1788361948 16.11° C 82% 1015.9 hPa 0 mm - 103 W/m² -
1788361345 15.56° C 84% 1015.9 hPa 0 mm - 78 W/m² -
1788360744 15° C 84% 1015.7 hPa 0 mm - 49 W/m² -
1788360141 15° C 85% 1015.5 hPa 0 mm - 37 W/m² -
1788359538 15° C 85% 1015.5 hPa 0 mm - 34 W/m² -
1788358935 14.44° C 85% 1015.5 hPa 0 mm - 21 W/m² -
1788358330 14.44° C 86% 1015.4 hPa 0 mm - 15 W/m² -
1788357726 14.44° C 86% 1015.5 hPa 0 mm - 14 W/m² -
1788357121 14.44° C 87% 1015.3 hPa 0 mm - 10 W/m² -
1788356515 14.44° C 87% 1015.2 hPa 0 mm - 3 W/m² -
1788355910 13.89° C 87% 1015.1 hPa 0 mm - 2 W/m² -
1788355307 13.89° C 87% 1014.9 hPa 0 mm - 0 W/m² -
1788354704 13.89° C 87% 1014.9 hPa 0 mm - 0 W/m² -
1788354101 14.44° C 87% 1014.8 hPa 0 mm - 0 W/m² -
1788353497 14.44° C 87% 1014.8 hPa 0 mm - 0 W/m² -
1788352894 14.44° C 87% 1014.9 hPa 0 mm - 0 W/m² -
1788352290 14.44° C 88% 1014.9 hPa 0 mm - 0 W/m² -
1788351686 14.44° C 88% 1015 hPa 0 mm - 0 W/m² -
1788351087 14.44° C 88% 1014.8 hPa 0 mm - 0 W/m² -
1788350486 14.44° C 88% 1014.9 hPa 0 mm - 0 W/m² -

* Rain latest hour (hover to see other rain measurements)
** Current wind speed in m/s (hover to see current wind gust speed)